createdAt,value
2019-04-11T00:00:35.289Z,77.04
2019-04-11T00:03:05.115Z,77.15
2019-04-11T00:05:34.930Z,77.59
2019-04-11T00:08:05.951Z,77.40
2019-04-11T00:10:35.844Z,77.06
2019-04-11T00:13:17.321Z,76.72
2019-04-11T00:15:37.084Z,77.07
2019-04-11T00:18:06.222Z,77.29
2019-04-11T00:20:36.101Z,77.17
2019-04-11T00:23:06.033Z,77.31
2019-04-11T00:25:35.781Z,77.81
2019-04-11T00:28:05.795Z,77.53
2019-04-11T00:30:34.584Z,77.58
2019-04-11T00:33:03.408Z,77.35
2019-04-11T00:35:33.490Z,77.63
2019-04-11T00:38:02.582Z,77.63
2019-04-11T00:40:31.311Z,78.23
2019-04-11T00:43:01.069Z,78.71
2019-04-11T00:45:29.971Z,78.51
2019-04-11T00:47:59.627Z,78.60
2019-04-11T00:50:30.132Z,79.26
2019-04-11T00:52:59.589Z,79.46
2019-04-11T00:55:29.342Z,79.04
2019-04-11T00:57:58.522Z,78.72
2019-04-11T01:00:27.342Z,78.77
2019-04-11T01:02:56.082Z,78.16
2019-04-11T01:05:25.613Z,78.17
2019-04-11T01:07:55.434Z,78.07
2019-04-11T01:10:25.091Z,78.32
2019-04-11T01:12:53.864Z,78.70
2019-04-11T01:15:24.182Z,79.00
2019-04-11T01:17:53.868Z,78.91
2019-04-11T01:20:23.828Z,78.75
2019-04-11T01:22:52.628Z,78.94
2019-04-11T01:25:22.183Z,79.01
2019-04-11T01:27:51.526Z,79.31
2019-04-11T01:30:23.313Z,79.28
2019-04-11T01:32:52.724Z,79.50
2019-04-11T01:35:22.135Z,79.06
2019-04-11T01:37:50.971Z,79.57
2019-04-11T01:40:19.739Z,79.88
2019-04-11T01:42:49.239Z,79.72
2019-04-11T01:45:19.686Z,80.26
2019-04-11T01:47:59.441Z,80.24
2019-04-11T01:50:29.835Z,80.12
2019-04-11T01:52:58.612Z,80.72
2019-04-11T01:55:28.248Z,80.86
2019-04-11T01:57:58.315Z,80.63
2019-04-11T02:03:08.758Z,80.13
2019-04-11T02:05:38.708Z,79.98
2019-04-11T02:08:07.462Z,80.08
2019-04-11T02:10:37.064Z,80.50
2019-04-11T02:13:06.318Z,80.78
2019-04-11T02:15:35.089Z,80.71
2019-04-11T02:18:03.877Z,81.34
2019-04-11T02:20:33.357Z,80.90
2019-04-11T02:23:04.634Z,81.06
2019-04-11T02:25:38.690Z,81.28
2019-04-11T02:28:08.592Z,81.41
2019-04-11T02:30:41.030Z,81.37
2019-04-11T02:33:11.701Z,81.20
2019-04-11T02:35:42.354Z,81.48
2019-04-11T02:38:12.423Z,81.65
2019-04-11T02:40:43.022Z,81.82
2019-04-11T02:43:13.305Z,81.95
2019-04-11T02:45:52.631Z,81.80
2019-04-11T02:48:13.776Z,82.15
2019-04-11T02:50:45.723Z,82.39
2019-04-11T02:53:14.870Z,82.45
2019-04-11T02:55:46.759Z,82.82
2019-04-11T02:58:16.715Z,82.88
2019-04-11T03:00:45.783Z,82.85
2019-04-11T03:03:15.251Z,82.69
2019-04-11T03:05:46.896Z,82.82
2019-04-11T03:08:19.247Z,83.32
2019-04-11T03:10:46.674Z,83.48
2019-04-11T03:13:16.843Z,83.97
2019-04-11T03:16:00.501Z,84.31
2019-04-11T03:18:39.171Z,84.42
2019-04-11T03:20:53.155Z,84.26
2019-04-11T03:23:20.904Z,84.54
2019-04-11T03:25:49.073Z,84.71
2019-04-11T03:28:23.125Z,85.00
2019-04-11T03:31:13.796Z,85.05
2019-04-11T03:36:54.043Z,84.94
2019-04-11T03:38:46.908Z,85.28
2019-04-11T03:41:17.353Z,85.35
2019-04-11T03:43:39.800Z,85.48
2019-04-11T03:46:14.296Z,85.73
2019-04-11T03:48:40.850Z,85.93
2019-04-11T03:51:00.070Z,85.65
2019-04-11T03:53:31.951Z,86.15
2019-04-11T03:56:01.679Z,86.16
2019-04-11T03:58:31.717Z,86.24
2019-04-11T04:01:05.562Z,86.67
2019-04-11T04:03:34.178Z,86.55
2019-04-11T04:06:04.593Z,86.59
2019-04-11T04:08:36.182Z,87.05
2019-04-11T04:11:08.619Z,86.93
2019-04-11T04:13:39.924Z,86.72
2019-04-11T04:16:26.075Z,86.63
2019-04-11T04:19:12.769Z,86.21
2019-04-11T04:21:50.960Z,86.56
2019-04-11T04:24:31.929Z,86.57
2019-04-11T04:27:01.675Z,86.91
2019-04-11T04:29:32.434Z,87.31
2019-04-11T04:32:02.868Z,87.68
2019-04-11T04:34:33.608Z,87.28
2019-04-11T04:37:03.573Z,87.74
2019-04-11T04:39:34.591Z,87.91
2019-04-11T04:42:11.074Z,87.98
2019-04-11T04:44:35.690Z,88.15
2019-04-11T04:47:15.302Z,88.19
2019-04-11T04:49:36.520Z,88.44
2019-04-11T04:52:07.833Z,88.62
2019-04-11T04:54:36.593Z,88.29
2019-04-11T04:57:08.568Z,88.36
2019-04-11T04:59:37.518Z,88.63
2019-04-11T05:02:08.206Z,88.31
2019-04-11T05:04:38.312Z,88.05
2019-04-11T05:07:07.441Z,88.37
2019-04-11T05:09:36.266Z,88.45
2019-04-11T05:12:05.455Z,87.16
2019-04-11T05:14:35.087Z,86.17
2019-04-11T05:17:06.608Z,85.44
2019-04-11T05:19:35.643Z,83.61
2019-04-11T05:22:06.471Z,79.63
2019-04-11T05:24:36.839Z,74.37
2019-04-11T05:27:06.365Z,72.27
2019-04-11T05:29:35.622Z,69.25
2019-04-11T05:32:05.280Z,69.59
2019-04-11T05:34:35.117Z,66.01
2019-04-11T05:37:05.213Z,62.54
2019-04-11T05:39:33.963Z,61.71
2019-04-11T05:42:03.158Z,62.66
2019-04-11T05:44:35.298Z,62.30
2019-04-11T05:47:05.587Z,61.76
2019-04-11T05:49:47.388Z,60.11
2019-04-11T05:52:16.218Z,59.56
2019-04-11T05:54:51.064Z,58.67
2019-04-11T05:57:23.787Z,57.68
2019-04-11T05:59:53.415Z,59.08
2019-04-11T06:02:35.320Z,58.90
2019-04-11T06:05:24.508Z,58.77
2019-04-11T06:08:02.337Z,57.92
2019-04-11T06:10:33.795Z,59.53
2019-04-11T06:13:07.952Z,58.42
2019-04-11T06:15:40.835Z,60.54
2019-04-11T06:18:17.904Z,57.10
2019-04-11T06:20:45.806Z,58.22
2019-04-11T06:23:32.559Z,58.89
2019-04-11T06:26:19.211Z,56.23
2019-04-11T06:28:49.617Z,57.26
2019-04-11T06:31:24.551Z,58.67
2019-04-11T06:33:55.014Z,56.93
2019-04-11T06:36:26.762Z,58.50
2019-04-11T06:39:03.162Z,57.33
2019-04-11T06:41:34.715Z,57.72
2019-04-11T06:44:21.932Z,57.19
2019-04-11T06:47:10.448Z,57.39
2019-04-11T06:49:40.833Z,57.47
2019-04-11T06:52:12.422Z,57.51
2019-04-11T06:54:43.649Z,56.45
2019-04-11T06:57:25.813Z,57.43
2019-04-11T06:59:54.549Z,56.62
2019-04-11T07:02:25.157Z,56.91
2019-04-11T07:05:04.632Z,56.82
2019-04-11T07:07:35.666Z,57.27
2019-04-11T07:10:06.329Z,55.56
2019-04-11T07:12:49.369Z,56.78
2019-04-11T07:15:23.544Z,56.96
2019-04-11T07:18:10.126Z,57.66
2019-04-11T07:20:52.573Z,56.83
2019-04-11T07:23:38.928Z,57.35
2019-04-11T07:26:12.253Z,55.85
2019-04-11T07:28:43.871Z,56.07
2019-04-11T07:31:21.592Z,55.38
2019-04-11T07:34:06.149Z,55.23
2019-04-11T07:39:47.352Z,54.99
2019-04-11T07:42:26.654Z,56.28
2019-04-11T07:45:20.903Z,55.89
2019-04-11T07:48:08.747Z,53.79
2019-04-11T07:50:37.702Z,53.89
2019-04-11T07:53:08.672Z,54.06
2019-04-11T07:55:39.256Z,54.00
2019-04-11T07:58:13.147Z,54.92
2019-04-11T08:00:47.452Z,53.97
2019-04-11T08:03:32.137Z,53.68
2019-04-11T08:06:18.569Z,54.71
2019-04-11T08:09:05.256Z,52.23
2019-04-11T08:11:35.905Z,50.94
2019-04-11T08:14:18.202Z,50.98
2019-04-11T08:17:04.970Z,50.29
2019-04-11T08:19:51.696Z,50.33
2019-04-11T08:22:30.831Z,49.87
2019-04-11T08:25:17.420Z,50.22
2019-04-11T08:28:01.339Z,49.79
2019-04-11T08:30:46.801Z,48.33
2019-04-11T08:33:18.253Z,49.50
2019-04-11T08:36:03.625Z,48.29
2019-04-11T08:38:34.284Z,49.07
2019-04-11T08:41:05.191Z,49.46
2019-04-11T08:43:35.249Z,47.53
2019-04-11T08:46:06.947Z,47.95
2019-04-11T08:48:37.320Z,48.35
2019-04-11T08:51:08.677Z,47.55
2019-04-11T08:53:45.770Z,47.78
2019-04-11T08:56:20.856Z,48.08
2019-04-11T08:59:33.585Z,50.90
2019-04-11T09:02:03.087Z,47.66
2019-04-11T09:04:50.300Z,46.97
2019-04-11T09:07:36.053Z,49.98
2019-04-11T09:10:24.042Z,46.34
2019-04-11T09:13:13.341Z,46.34
2019-04-11T09:15:59.880Z,45.03
2019-04-11T09:18:30.307Z,45.89
2019-04-11T09:21:06.349Z,46.94
2019-04-11T09:23:37.645Z,44.19
2019-04-11T09:26:25.568Z,42.92
2019-04-11T09:28:55.042Z,44.56
2019-04-11T09:31:31.794Z,44.85
2019-04-11T09:34:11.786Z,43.98
2019-04-11T09:36:45.210Z,43.49
2019-04-11T09:39:21.403Z,43.77
2019-04-11T09:41:57.597Z,42.30
2019-04-11T09:44:30.954Z,41.00
2019-04-11T09:47:11.206Z,40.62
2019-04-11T09:49:42.952Z,41.60
2019-04-11T09:52:14.286Z,42.66
2019-04-11T09:54:51.164Z,40.45
2019-04-11T09:57:28.853Z,41.93
2019-04-11T09:59:59.585Z,42.58
2019-04-11T10:02:48.398Z,44.46
2019-04-11T10:05:24.716Z,46.08
2019-04-11T10:08:02.094Z,46.48
2019-04-11T10:10:33.091Z,47.00
2019-04-11T10:13:20.541Z,46.85
2019-04-11T10:16:07.650Z,46.98
2019-04-11T10:18:47.367Z,43.29
2019-04-11T10:21:19.366Z,44.04
2019-04-11T10:23:57.450Z,44.43
2019-04-11T10:26:28.089Z,44.06
2019-04-11T10:29:15.084Z,44.39
2019-04-11T10:31:46.413Z,43.51
2019-04-11T10:34:23.706Z,44.07
2019-04-11T10:36:55.815Z,42.64
2019-04-11T10:39:35.590Z,43.46
2019-04-11T10:42:08.615Z,43.68
2019-04-11T10:44:42.306Z,41.92
2019-04-11T10:47:16.455Z,40.80
2019-04-11T10:50:03.277Z,36.86
2019-04-11T10:52:43.221Z,34.50
2019-04-11T10:55:17.726Z,35.96
2019-04-11T10:57:52.030Z,35.64
2019-04-11T11:00:25.872Z,37.34
2019-04-11T11:02:59.837Z,37.26
2019-04-11T11:05:38.385Z,38.75
2019-04-11T11:08:19.407Z,38.95
2019-04-11T11:10:50.086Z,39.20
2019-04-11T11:13:39.643Z,39.20
2019-04-11T11:16:13.947Z,40.48
2019-04-11T11:19:24.617Z,38.08
2019-04-11T11:21:35.193Z,38.26
2019-04-11T11:24:28.777Z,40.08
2019-04-11T11:27:01.488Z,43.24
2019-04-11T11:29:40.360Z,39.16
2019-04-11T11:32:16.839Z,39.54
2019-04-11T11:34:53.292Z,36.26
2019-04-11T11:37:33.255Z,36.47
2019-04-11T11:40:23.691Z,38.93
2019-04-11T11:42:58.773Z,40.24
2019-04-11T11:45:37.593Z,39.19
2019-04-11T11:48:20.767Z,38.58
2019-04-11T11:51:01.207Z,40.53
2019-04-11T11:53:46.922Z,40.91
2019-04-11T11:56:29.710Z,40.89
2019-04-11T11:59:02.757Z,42.20
2019-04-11T12:01:42.254Z,41.37
2019-04-11T12:04:14.796Z,41.36
2019-04-11T12:06:47.806Z,42.40
2019-04-11T12:09:36.277Z,41.00
2019-04-11T12:12:22.136Z,40.26
2019-04-11T12:14:59.371Z,39.15
2019-04-11T12:17:36.169Z,40.33
2019-04-11T12:20:11.678Z,40.33
2019-04-11T12:22:40.198Z,42.75
2019-04-11T12:25:29.205Z,40.61
2019-04-11T12:28:00.493Z,39.98
2019-04-11T12:30:32.733Z,39.52
2019-04-11T12:33:05.531Z,40.04
2019-04-11T12:35:36.054Z,39.32
2019-04-11T12:38:24.445Z,40.97
2019-04-11T12:41:10.549Z,42.86
2019-04-11T12:43:46.757Z,41.20
2019-04-11T12:46:33.671Z,41.05
2019-04-11T12:49:09.906Z,41.09
2019-04-11T12:51:56.252Z,40.00
2019-04-11T12:54:26.665Z,39.63
2019-04-11T12:57:13.251Z,38.04
2019-04-11T12:59:42.157Z,37.52
2019-04-11T13:02:24.415Z,39.38
2019-04-11T13:04:59.568Z,38.05
2019-04-11T13:07:30.226Z,36.53
2019-04-11T13:10:00.549Z,35.31
2019-04-11T13:12:47.209Z,36.16
2019-04-11T13:15:20.260Z,37.27
2019-04-11T13:17:56.481Z,35.74
2019-04-11T13:20:29.860Z,35.52
2019-04-11T13:23:16.352Z,36.72
2019-04-11T13:26:06.176Z,36.29
2019-04-11T13:28:35.063Z,36.33
2019-04-11T13:31:21.616Z,37.58
2019-04-11T13:33:52.405Z,37.10
2019-04-11T13:36:32.261Z,37.27
2019-04-11T13:39:03.103Z,37.60
2019-04-11T13:41:42.654Z,38.29
2019-04-11T13:44:13.003Z,36.92
2019-04-11T13:46:44.116Z,36.15
2019-04-11T13:49:14.581Z,32.54
2019-04-11T13:51:59.726Z,31.30
2019-04-11T13:54:32.884Z,31.17
2019-04-11T13:57:19.449Z,30.66
2019-04-11T14:00:05.943Z,29.99
2019-04-11T14:02:50.421Z,31.16
2019-04-11T14:05:11.345Z,33.63
2019-04-11T14:07:41.690Z,33.49
2019-04-11T14:10:18.157Z,35.13
2019-04-11T14:12:48.039Z,35.62
2019-04-11T14:15:21.095Z,36.91
2019-04-11T14:17:51.430Z,36.59
2019-04-11T14:20:29.604Z,36.47
2019-04-11T14:23:05.857Z,36.22
2019-04-11T14:25:51.233Z,34.87
2019-04-11T14:28:27.496Z,34.84
2019-04-11T14:31:00.559Z,32.32
2019-04-11T14:33:30.874Z,32.57
2019-04-11T14:36:10.238Z,33.80
2019-04-11T14:38:45.848Z,35.78
2019-04-11T14:41:18.481Z,37.64
2019-04-11T14:43:48.781Z,35.97
2019-04-11T14:46:19.929Z,35.95
2019-04-11T14:48:50.254Z,37.74
2019-04-11T14:51:23.877Z,35.68
2019-04-11T14:54:11.700Z,35.71
2019-04-11T14:56:57.837Z,35.33
2019-04-11T14:59:43.363Z,34.35
2019-04-11T15:02:22.640Z,34.89
2019-04-11T15:05:01.910Z,36.53
2019-04-11T15:07:32.274Z,37.61
2019-04-11T15:10:17.874Z,34.23
2019-04-11T15:12:48.090Z,36.80
2019-04-11T15:15:28.601Z,38.19
2019-04-11T15:20:59.291Z,37.76
2019-04-11T15:23:32.814Z,37.85
2019-04-11T15:26:03.256Z,36.25
2019-04-11T15:28:36.889Z,36.58
2019-04-11T15:31:18.482Z,36.40
2019-04-11T15:34:08.571Z,37.09
2019-04-11T15:36:39.895Z,38.18
2019-04-11T15:39:44.052Z,37.73
2019-04-11T15:42:09.237Z,36.76
2019-04-11T15:44:53.552Z,35.25
2019-04-11T15:47:23.959Z,33.33
2019-04-11T15:50:12.369Z,32.35
2019-04-11T15:52:44.218Z,35.28
2019-04-11T15:55:31.197Z,33.44
2019-04-11T15:58:01.921Z,32.49
2019-04-11T16:00:50.515Z,33.36
2019-04-11T16:03:19.343Z,34.24
2019-04-11T16:06:05.156Z,36.83
2019-04-11T16:08:38.888Z,36.92
2019-04-11T16:11:16.644Z,38.21
2019-04-11T16:13:56.037Z,39.74
2019-04-11T16:16:29.282Z,38.03
2019-04-11T16:19:02.695Z,37.25
2019-04-11T16:21:49.112Z,37.48
2019-04-11T16:24:22.277Z,36.43
2019-04-11T16:27:00.530Z,35.77
2019-04-11T16:29:30.867Z,37.08
2019-04-11T16:32:06.920Z,36.22
2019-04-11T16:34:47.924Z,37.76
2019-04-11T16:37:08.115Z,34.48
2019-04-11T16:39:55.126Z,37.33
2019-04-11T16:42:26.223Z,35.78
2019-04-11T16:45:02.357Z,36.80
2019-04-11T16:47:47.561Z,38.68
2019-04-11T16:50:16.483Z,38.72
2019-04-11T16:52:45.208Z,38.78
2019-04-11T16:55:13.971Z,39.27
2019-04-11T16:57:44.326Z,38.38
2019-04-11T17:00:13.358Z,39.53
2019-04-11T17:02:42.170Z,39.53
2019-04-11T17:05:11.169Z,39.64
2019-04-11T17:07:44.250Z,38.67
2019-04-11T17:10:14.734Z,39.64
2019-04-11T17:12:43.458Z,40.03
2019-04-11T17:15:12.239Z,39.48
2019-04-11T17:17:40.994Z,39.51
2019-04-11T17:20:09.825Z,39.84
2019-04-11T17:22:38.563Z,39.82
2019-04-11T17:25:07.340Z,40.63
2019-04-11T17:27:36.070Z,40.03
2019-04-11T17:30:06.705Z,39.59
2019-04-11T17:32:36.232Z,41.36
2019-04-11T17:35:06.659Z,41.25
2019-04-11T17:37:35.445Z,41.63
2019-04-11T17:40:07.050Z,41.60
2019-04-11T17:42:36.980Z,41.86
2019-04-11T17:45:07.760Z,42.58
2019-04-11T17:47:36.518Z,42.25
2019-04-11T17:50:06.756Z,43.05
2019-04-11T17:52:35.580Z,42.73
2019-04-11T17:55:05.821Z,43.24
2019-04-11T17:57:34.586Z,43.88
2019-04-11T18:00:04.882Z,44.14
2019-04-11T18:02:33.622Z,43.62
2019-04-11T18:05:02.379Z,44.29
2019-04-11T18:07:31.168Z,44.96
2019-04-11T18:10:00.043Z,45.12
2019-04-11T18:12:28.807Z,44.35
2019-04-11T18:14:59.848Z,44.92
2019-04-11T18:17:28.050Z,44.40
2019-04-11T18:19:56.858Z,44.48
2019-04-11T18:22:25.802Z,44.85
2019-04-11T18:24:55.381Z,45.42
2019-04-11T18:27:24.226Z,46.18
2019-04-11T18:29:53.613Z,45.51
2019-04-11T18:32:22.462Z,45.86
2019-04-11T18:34:51.198Z,45.70
2019-04-11T18:37:19.967Z,46.64
2019-04-11T18:39:48.809Z,46.97
2019-04-11T18:42:17.588Z,47.02
2019-04-11T18:44:46.421Z,46.91
2019-04-11T18:47:15.262Z,47.12
2019-04-11T18:49:44.230Z,47.06
2019-04-11T18:52:19.573Z,47.22
2019-04-11T18:54:43.820Z,47.91
2019-04-11T18:57:14.086Z,47.58
2019-04-11T18:59:43.864Z,47.66
2019-04-11T19:02:12.844Z,47.62
2019-04-11T19:04:42.212Z,47.92
2019-04-11T19:07:13.866Z,48.04
2019-04-11T19:09:43.883Z,48.02
2019-04-11T19:12:15.878Z,48.29
2019-04-11T19:14:46.003Z,48.78
2019-04-11T19:17:30.611Z,48.99
2019-04-11T19:20:00.215Z,49.18
2019-04-11T19:22:37.601Z,49.31
2019-04-11T19:24:59.593Z,49.60
2019-04-11T19:27:28.878Z,50.45
2019-04-11T19:29:57.739Z,50.98
2019-04-11T19:32:26.493Z,50.80
2019-04-11T19:34:55.909Z,51.17
2019-04-11T19:37:31.159Z,50.98
2019-04-11T19:40:00.070Z,50.02
2019-04-11T19:42:29.840Z,50.72
2019-04-11T19:44:58.990Z,50.83
2019-04-11T19:47:29.303Z,50.69
2019-04-11T19:50:03.343Z,50.73
2019-04-11T19:52:45.152Z,50.74
2019-04-11T19:55:19.359Z,50.94
2019-04-11T19:57:48.375Z,50.94
2019-04-11T20:00:21.374Z,50.94
2019-04-11T20:02:47.681Z,51.34
2019-04-11T20:05:16.447Z,51.36
2019-04-11T20:07:47.124Z,51.71
2019-04-11T20:10:16.125Z,50.95
2019-04-11T20:12:45.625Z,50.86
2019-04-11T20:15:16.143Z,51.30
2019-04-11T20:17:51.076Z,52.25
2019-04-11T20:20:16.040Z,52.38
2019-04-11T20:23:05.107Z,51.85
2019-04-11T20:25:46.269Z,51.80
2019-04-11T20:28:16.460Z,51.79
2019-04-11T20:30:49.432Z,51.35
2019-04-11T20:33:26.879Z,51.93
2019-04-11T20:35:59.354Z,51.85
2019-04-11T20:38:28.657Z,51.94
2019-04-11T20:40:57.389Z,52.42
2019-04-11T20:43:27.800Z,51.55
2019-04-11T20:45:58.669Z,52.15
2019-04-11T20:48:27.702Z,51.87
2019-04-11T20:50:57.136Z,52.67
2019-04-11T20:53:25.976Z,53.18
2019-04-11T20:55:54.719Z,53.26
2019-04-11T20:58:27.517Z,53.99
2019-04-11T21:00:56.039Z,53.34
2019-04-11T21:03:24.996Z,53.92
2019-04-11T21:05:55.447Z,53.99
2019-04-11T21:08:25.724Z,54.36
2019-04-11T21:10:56.587Z,54.29
2019-04-11T21:13:26.795Z,54.38
2019-04-11T21:15:55.911Z,54.58
2019-04-11T21:18:25.835Z,54.93
2019-04-11T21:20:58.196Z,54.62
2019-04-11T21:23:29.467Z,54.76
2019-04-11T21:25:59.066Z,54.59
2019-04-11T21:28:30.317Z,54.91
2019-04-11T21:31:00.120Z,54.78
2019-04-11T21:33:29.528Z,54.82
2019-04-11T21:35:58.330Z,54.91
2019-04-11T21:38:28.140Z,54.56
2019-04-11T21:40:57.785Z,54.75
2019-04-11T21:43:26.523Z,54.85
2019-04-11T21:45:58.689Z,55.31
2019-04-11T21:48:27.619Z,55.09
2019-04-11T21:50:56.457Z,55.63
2019-04-11T21:53:36.059Z,55.63
2019-04-11T21:55:56.114Z,55.91
2019-04-11T21:58:27.412Z,55.77
2019-04-11T22:01:02.151Z,55.74
2019-04-11T22:03:31.918Z,55.74
2019-04-11T22:06:00.689Z,56.44
2019-04-11T22:08:29.459Z,56.57
2019-04-11T22:10:58.213Z,56.59
2019-04-11T22:13:26.947Z,57.29
2019-04-11T22:15:55.730Z,57.09
2019-04-11T22:18:24.476Z,57.26
2019-04-11T22:20:53.231Z,57.06
2019-04-11T22:23:21.964Z,57.21
2019-04-11T22:25:50.801Z,57.62
2019-04-11T22:28:21.973Z,57.66
2019-04-11T22:30:50.102Z,57.82
2019-04-11T22:33:29.206Z,58.03
2019-04-11T22:35:59.320Z,58.26
2019-04-11T22:38:30.535Z,58.50
2019-04-11T22:41:01.503Z,58.87
2019-04-11T22:43:29.443Z,58.75
2019-04-11T22:45:58.173Z,58.70
2019-04-11T22:48:26.909Z,58.92
2019-04-11T22:50:55.708Z,59.01
2019-04-11T22:53:24.473Z,59.00
2019-04-11T22:55:53.225Z,58.85
2019-04-11T22:58:21.980Z,59.08
2019-04-11T23:00:51.760Z,59.30
2019-04-11T23:03:22.944Z,59.17
2019-04-11T23:05:53.969Z,59.31
2019-04-11T23:08:22.744Z,59.41
2019-04-11T23:10:51.570Z,59.62
2019-04-11T23:13:20.341Z,59.82
2019-04-11T23:15:49.137Z,59.38
2019-04-11T23:18:17.989Z,59.65
2019-04-11T23:20:46.715Z,59.96
2019-04-11T23:23:15.460Z,59.85
2019-04-11T23:25:44.244Z,60.03
2019-04-11T23:28:15.614Z,60.25
2019-04-11T23:30:43.435Z,60.11
2019-04-11T23:33:12.256Z,59.63
2019-04-11T23:35:41.016Z,59.61
2019-04-11T23:38:09.929Z,59.22
2019-04-11T23:40:38.692Z,59.67
2019-04-11T23:43:07.501Z,59.68
2019-04-11T23:45:36.262Z,59.52
2019-04-11T23:48:05.239Z,59.21
2019-04-11T23:50:34.043Z,59.64
2019-04-11T23:53:02.777Z,59.65
2019-04-11T23:55:31.520Z,59.62
2019-04-11T23:58:01.725Z,59.89
